Time;durP1;ratioP1;P1;durP2;ratioP2;P2;SDS_P1;SDS_P2;PMS_P1;PMS_P2;Temp;Humidity;BMP_temperature;BMP_pressure;BME280_temperature;BME280_humidity;BME280_pressure;Samples;Min_cycle;Max_cycle;Signal;HPM_P1;HPM_P2
2022/12/10 00:01:27;;;;;;;23.40;13.35;;;;;;;;;;5051430;28;20041;-79
2022/12/10 00:03:56;;;;;;;22.80;13.57;;;;;;;;;;5035789;28;20037;-80
2022/12/10 00:06:23;;;;;;;31.50;13.95;;;;;;;;;;5045935;28;20033;-79
2022/12/10 00:08:52;;;;;;;20.00;11.70;;;;;;;;;;5038144;28;20026;-79
2022/12/10 00:11:24;;;;;;;23.00;12.70;;;;;;;;;;5034758;28;20057;-80
2022/12/10 00:13:58;;;;;;;22.02;12.05;;;;;;;;;;5049920;28;20072;-78
2022/12/10 00:16:40;;;;;;;26.17;13.18;;;;;;;;;;5037397;28;20081;-78
2022/12/10 00:19:19;;;;;;;21.52;11.18;;;;;;;;;;5035088;28;20030;-79
2022/12/10 00:21:47;;;;;;;20.40;10.80;;;;;;;;;;5038806;28;20045;-79
2022/12/10 00:24:37;;;;;;;20.75;11.07;;;;;;;;;;5039848;28;20108;-80
2022/12/10 00:27:41;;;;;;;25.25;11.52;;;;;;;;;;5037939;28;20083;-78
2022/12/10 00:30:19;;;;;;;24.42;10.80;;;;;;;;;;5004958;28;20038;-78
2022/12/10 00:33:09;;;;;;;22.23;11.25;;;;;;;;;;4998685;28;20043;-80
2022/12/10 00:35:42;;;;;;;28.63;11.98;;;;;;;;;;5019217;28;20034;-80
2022/12/10 00:38:40;;;;;;;22.88;11.60;;;;;;;;;;5000967;28;20086;-80
2022/12/10 00:41:15;;;;;;;22.98;10.65;;;;;;;;;;5012973;28;20026;-80
2022/12/10 00:44:11;;;;;;;18.83;10.48;;;;;;;;;;5001224;28;20034;-79
2022/12/10 00:47:00;;;;;;;24.90;11.45;;;;;;;;;;5015212;28;20034;-81
2022/12/10 00:49:50;;;;;;;25.27;12.18;;;;;;;;;;5002703;28;20087;-78
2022/12/10 00:52:54;;;;;;;20.77;11.68;;;;;;;;;;5013745;28;20057;-80
2022/12/10 00:55:31;;;;;;;27.63;12.50;;;;;;;;;;5009019;28;20034;-80
2022/12/10 00:58:30;;;;;;;23.77;12.07;;;;;;;;;;5014182;28;20045;-80
2022/12/10 01:01:17;;;;;;;24.25;11.68;;;;;;;;;;5012719;28;20031;-79
2022/12/10 01:03:49;;;;;;;27.55;11.10;;;;;;;;;;5023056;28;20057;-79
2022/12/10 01:07:02;;;;;;;20.88;12.15;;;;;;;;;;5009779;28;20034;-80
2022/12/10 01:09:33;;;;;;;23.57;11.30;;;;;;;;;;5003486;28;20488;-79
2022/12/10 01:12:11;;;;;;;29.20;12.93;;;;;;;;;;5003423;28;20038;-82
2022/12/10 01:14:42;;;;;;;26.33;12.18;;;;;;;;;;4991821;28;20057;-80
2022/12/10 01:17:14;;;;;;;21.88;11.43;;;;;;;;;;5014435;28;20480;-82
2022/12/10 01:20:01;;;;;;;22.50;12.18;;;;;;;;;;5013445;28;20041;-81
2022/12/10 01:22:32;;;;;;;27.50;12.00;;;;;;;;;;5012384;28;20112;-78
2022/12/10 01:25:04;;;;;;;;;;;;;;;;;;5025149;28;20042;-80
2022/12/10 01:28:14;;;;;;;24.40;13.20;;;;;;;;;;5014362;28;19970;-81
2022/12/10 01:31:48;;;;;;;26.80;12.20;;;;;;;;;;5057099;28;20029;-79
2022/12/10 01:35:02;;;;;;;30.65;13.15;;;;;;;;;;5065537;28;20100;-81
2022/12/10 01:38:14;;;;;;;29.63;11.90;;;;;;;;;;5060004;28;20044;-80
2022/12/10 01:41:18;;;;;;;23.10;12.30;;;;;;;;;;5052805;28;20284;-79
2022/12/10 01:44:04;;;;;;;26.85;11.88;;;;;;;;;;5070543;28;20013;-82
2022/12/10 01:46:56;;;;;;;31.83;13.55;;;;;;;;;;5057228;28;20037;-79
2022/12/10 01:53:03;;;;;;;32.03;12.48;;;;;;;;;;5045580;28;20024;-80
2022/12/10 01:56:07;;;;;;;28.98;13.35;;;;;;;;;;5042426;28;20018;-81
2022/12/10 01:59:02;;;;;;;24.73;11.35;;;;;;;;;;5052860;28;20029;-80
2022/12/10 02:02:12;;;;;;;28.67;12.32;;;;;;;;;;5062202;28;20017;-80
2022/12/10 02:05:19;;;;;;;27.67;11.77;;;;;;;;;;5063248;28;20117;-82
2022/12/10 02:08:11;;;;;;;29.30;13.02;;;;;;;;;;5067725;28;20033;-79
2022/12/10 02:14:36;;;;;;;25.88;13.90;;;;;;;;;;5050454;28;20059;-82
2022/12/10 02:17:23;;;;;;;23.92;13.15;;;;;;;;;;5067432;28;20017;-80
2022/12/10 02:20:12;;;;;;;29.05;13.43;;;;;;;;;;5038614;28;20030;-80
2022/12/10 02:22:49;;;;;;;27.40;14.13;;;;;;;;;;5045220;28;20468;-80
2022/12/10 02:25:20;;;;;;;24.38;13.02;;;;;;;;;;5057477;28;20041;-78
2022/12/10 02:27:54;;;;;;;32.80;14.68;;;;;;;;;;5044190;28;20026;-81
2022/12/10 02:30:30;;;;;;;26.88;13.18;;;;;;;;;;5042983;28;20051;-80
2022/12/10 02:33:38;;;;;;;24.02;12.32;;;;;;;;;;5073330;28;20052;-78
2022/12/10 02:36:45;;;;;;;29.90;13.00;;;;;;;;;;5016178;28;20021;-80
2022/12/10 02:42:50;;;;;;;28.13;13.95;;;;;;;;;;5061042;28;20041;-80
2022/12/10 02:45:58;;;;;;;30.58;13.65;;;;;;;;;;5047302;28;20044;-81
2022/12/10 02:48:32;;;;;;;28.88;13.02;;;;;;;;;;5044957;28;20261;-79
2022/12/10 02:51:17;;;;;;;32.47;13.88;;;;;;;;;;5045650;28;20093;-79
2022/12/10 02:53:51;;;;;;;30.35;12.77;;;;;;;;;;5041536;28;20056;-81
2022/12/10 02:56:46;;;;;;;25.52;12.38;;;;;;;;;;5045280;28;20021;-80
2022/12/10 02:59:32;;;;;;;32.22;12.50;;;;;;;;;;5041550;28;20041;-79
2022/12/10 03:02:35;;;;;;;24.08;12.38;;;;;;;;;;5045945;28;20049;-79
2022/12/10 03:05:23;;;;;;;24.73;13.15;;;;;;;;;;5041059;28;20088;-80
2022/12/10 03:08:15;;;;;;;25.13;12.30;;;;;;;;;;5041594;28;20033;-80
2022/12/10 03:11:04;;;;;;;23.38;13.55;;;;;;;;;;5038786;28;20404;-79
2022/12/10 03:13:36;;;;;;;30.08;13.45;;;;;;;;;;5028057;28;20108;-80
2022/12/10 03:16:23;;;;;;;25.30;12.80;;;;;;;;;;5048337;28;20036;-80
2022/12/10 03:18:57;;;;;;;27.65;13.85;;;;;;;;;;5044228;28;20088;-79
2022/12/10 03:21:30;;;;;;;24.48;12.50;;;;;;;;;;5049838;28;20116;-79
2022/12/10 03:24:18;;;;;;;28.08;12.07;;;;;;;;;;5063494;28;20029;-79
2022/12/10 03:26:52;;;;;;;28.80;12.70;;;;;;;;;;5050833;28;20064;-79
2022/12/10 03:29:23;;;;;;;29.27;12.50;;;;;;;;;;5031781;28;20045;-80
2022/12/10 03:31:51;;;;;;;28.58;13.48;;;;;;;;;;5047979;28;20061;-80
2022/12/10 03:34:23;;;;;;;24.73;12.60;;;;;;;;;;5042235;28;20039;-80
2022/12/10 03:36:57;;;;;;;22.25;11.23;;;;;;;;;;5045010;28;20040;-80
2022/12/10 03:39:26;;;;;;;27.38;12.55;;;;;;;;;;5034007;28;20044;-79
2022/12/10 03:41:53;;;;;;;26.25;11.82;;;;;;;;;;5032314;28;20396;-79
2022/12/10 03:44:35;;;;;;;26.13;11.32;;;;;;;;;;5055105;28;20025;-78
2022/12/10 03:47:04;;;;;;;27.30;12.77;;;;;;;;;;5031565;28;20199;-80
2022/12/10 03:49:30;;;;;;;28.38;13.50;;;;;;;;;;5042345;28;20025;-81
2022/12/10 03:51:57;;;;;;;25.73;13.35;;;;;;;;;;5036879;28;20041;-81
2022/12/10 03:54:29;;;;;;;22.48;11.60;;;;;;;;;;5025216;28;20038;-80
2022/12/10 03:57:02;;;;;;;31.02;14.75;;;;;;;;;;5037058;28;20112;-80
2022/12/10 03:59:32;;;;;;;30.25;13.90;;;;;;;;;;5056302;28;20025;-79
2022/12/10 04:02:08;;;;;;;21.95;11.73;;;;;;;;;;5029633;28;20040;-80
2022/12/10 04:04:38;;;;;;;23.80;12.40;;;;;;;;;;5040433;28;20044;-80
2022/12/10 04:07:38;;;;;;;23.60;11.73;;;;;;;;;;5037590;28;20069;-80
2022/12/10 04:10:29;;;;;;;25.17;13.23;;;;;;;;;;5041080;28;20037;-81
2022/12/10 04:19:00;;;;;;;25.42;12.93;;;;;;;;;;5045386;28;20040;-79
2022/12/10 04:27:11;;;;;;;28.75;13.48;;;;;;;;;;5046851;28;20060;-80
2022/12/10 04:30:10;;;;;;;26.73;12.90;;;;;;;;;;5021730;28;20136;-79
2022/12/10 04:32:40;;;;;;;23.35;13.38;;;;;;;;;;5041909;28;20029;-80
2022/12/10 04:35:13;;;;;;;24.35;12.70;;;;;;;;;;5040919;28;20022;-80
2022/12/10 04:38:02;;;;;;;22.27;11.55;;;;;;;;;;5039579;28;20026;-80
2022/12/10 04:40:29;;;;;;;22.95;11.98;;;;;;;;;;5037242;28;20049;-79
2022/12/10 04:43:25;;;;;;;19.33;11.07;;;;;;;;;;5039761;28;20033;-79
2022/12/10 04:45:57;;;;;;;26.08;10.13;;;;;;;;;;5029328;28;20045;-80
2022/12/10 04:48:46;;;;;;;18.60;10.43;;;;;;;;;;5027938;28;20584;-80
2022/12/10 04:51:20;;;;;;;21.58;12.25;;;;;;;;;;5039453;28;20462;-79
2022/12/10 04:54:12;;;;;;;19.42;11.27;;;;;;;;;;5043243;28;20037;-79
2022/12/10 04:56:57;;;;;;;23.48;10.93;;;;;;;;;;5040253;28;20038;-79
2022/12/10 04:59:36;;;;;;;17.75;10.75;;;;;;;;;;5039683;28;20063;-80
2022/12/10 05:02:06;;;;;;;18.92;10.32;;;;;;;;;;5038784;28;20519;-81
2022/12/10 05:04:57;;;;;;;20.45;10.43;;;;;;;;;;5036893;28;20476;-80
2022/12/10 05:07:47;;;;;;;19.40;10.20;;;;;;;;;;5039506;28;20078;-80
2022/12/10 05:10:16;;;;;;;19.48;10.85;;;;;;;;;;5033853;28;20033;-78
2022/12/10 05:12:46;;;;;;;21.48;11.07;;;;;;;;;;5036950;28;20531;-78
2022/12/10 05:15:36;;;;;;;18.38;10.38;;;;;;;;;;5030887;28;20034;-80
2022/12/10 05:18:08;;;;;;;23.45;11.05;;;;;;;;;;5049497;28;20049;-79
2022/12/10 05:20:57;;;;;;;20.15;9.70;;;;;;;;;;5032184;28;20053;-79
2022/12/10 05:23:32;;;;;;;15.40;9.15;;;;;;;;;;5034678;28;20049;-80
2022/12/10 05:25:59;;;;;;;14.70;8.13;;;;;;;;;;5032485;28;20044;-78
2022/12/10 05:28:25;;;;;;;16.67;8.93;;;;;;;;;;5034045;28;20037;-79
2022/12/10 05:30:51;;;;;;;17.25;8.95;;;;;;;;;;5028466;28;20045;-79
2022/12/10 05:33:17;;;;;;;15.15;9.65;;;;;;;;;;5029817;28;20026;-78
2022/12/10 05:35:43;;;;;;;14.60;8.32;;;;;;;;;;5048804;28;20025;-81
2022/12/10 05:38:10;;;;;;;19.90;10.02;;;;;;;;;;5032768;28;20375;-79
2022/12/10 05:40:37;;;;;;;17.85;9.40;;;;;;;;;;5025120;28;20021;-79
2022/12/10 05:43:03;;;;;;;18.92;9.02;;;;;;;;;;5031476;28;20113;-79
2022/12/10 05:45:32;;;;;;;16.13;8.23;;;;;;;;;;5027934;28;20064;-78
2022/12/10 05:47:58;;;;;;;19.17;8.70;;;;;;;;;;5045625;28;20025;-78
2022/12/10 05:50:24;;;;;;;15.75;9.35;;;;;;;;;;5028868;28;20706;-78
2022/12/10 05:52:51;;;;;;;14.80;8.57;;;;;;;;;;5023152;28;20104;-80
2022/12/10 05:55:17;;;;;;;14.52;7.95;;;;;;;;;;5040605;28;20026;-78
2022/12/10 05:57:43;;;;;;;16.60;8.85;;;;;;;;;;5042816;28;20026;-78
2022/12/10 06:00:10;;;;;;;17.85;9.10;;;;;;;;;;5027310;28;20026;-79
2022/12/10 06:02:36;;;;;;;12.93;7.35;;;;;;;;;;5024156;28;20040;-78
2022/12/10 06:05:02;;;;;;;17.65;8.45;;;;;;;;;;5037168;28;20404;-79
2022/12/10 06:07:29;;;;;;;16.58;9.50;;;;;;;;;;5024198;28;20037;-78
2022/12/10 06:09:55;;;;;;;14.68;7.65;;;;;;;;;;5022809;28;20026;-79
2022/12/10 06:12:21;;;;;;;16.98;7.95;;;;;;;;;;5016980;28;20234;-78
2022/12/10 06:14:48;;;;;;;14.65;8.50;;;;;;;;;;5027297;28;20025;-79
2022/12/10 06:17:14;;;;;;;15.25;8.68;;;;;;;;;;5040963;28;20021;-79
2022/12/10 06:19:40;;;;;;;14.32;8.13;;;;;;;;;;5044079;28;20033;-79
2022/12/10 06:22:06;;;;;;;13.13;8.57;;;;;;;;;;5047840;28;20037;-78
2022/12/10 06:24:32;;;;;;;15.65;7.50;;;;;;;;;;5029078;28;20031;-79
2022/12/10 06:26:58;;;;;;;17.33;7.95;;;;;;;;;;5034445;28;20028;-78
2022/12/10 06:29:25;;;;;;;13.48;7.40;;;;;;;;;;5021869;28;20147;-79
2022/12/10 06:31:51;;;;;;;18.70;9.18;;;;;;;;;;5037552;28;20613;-78
2022/12/10 06:34:17;;;;;;;14.35;9.07;;;;;;;;;;5036937;28;20017;-78
2022/12/10 06:36:43;;;;;;;15.57;9.10;;;;;;;;;;5054862;28;20083;-77
2022/12/10 06:39:09;;;;;;;14.88;8.75;;;;;;;;;;5032917;28;20463;-78
2022/12/10 06:41:35;;;;;;;13.75;7.20;;;;;;;;;;5028812;28;20409;-78
2022/12/10 06:44:01;;;;;;;11.45;7.60;;;;;;;;;;5030474;28;20052;-78
2022/12/10 06:46:28;;;;;;;16.70;8.00;;;;;;;;;;5041113;28;20029;-78
2022/12/10 06:48:54;;;;;;;13.85;8.15;;;;;;;;;;5025798;28;20028;-78
2022/12/10 06:51:20;;;;;;;11.82;7.68;;;;;;;;;;5055276;28;20124;-79
2022/12/10 06:53:47;;;;;;;14.45;8.07;;;;;;;;;;5031329;28;20033;-79
2022/12/10 06:56:15;;;;;;;12.82;7.55;;;;;;;;;;5030649;28;20048;-78
2022/12/10 06:58:41;;;;;;;13.88;8.57;;;;;;;;;;5027378;28;20510;-79
2022/12/10 07:01:15;;;;;;;14.20;7.28;;;;;;;;;;5030249;28;20032;-78
2022/12/10 07:03:41;;;;;;;13.35;7.72;;;;;;;;;;5022402;28;20034;-79
2022/12/10 07:06:08;;;;;;;14.10;7.80;;;;;;;;;;5029688;28;20280;-79
2022/12/10 07:08:34;;;;;;;13.93;8.10;;;;;;;;;;5043343;28;20104;-78
2022/12/10 07:11:03;;;;;;;11.18;7.70;;;;;;;;;;5027140;28;20247;-78
2022/12/10 07:13:29;;;;;;;11.15;7.53;;;;;;;;;;5039406;28;20029;-79
2022/12/10 07:15:55;;;;;;;12.10;7.00;;;;;;;;;;5026205;28;20538;-78
2022/12/10 07:18:22;;;;;;;12.23;7.60;;;;;;;;;;5039451;28;20392;-78
2022/12/10 07:20:48;;;;;;;19.10;8.10;;;;;;;;;;5026685;28;20144;-78
2022/12/10 07:23:14;;;;;;;13.30;7.07;;;;;;;;;;5042765;28;20116;-79
2022/12/10 07:25:40;;;;;;;17.13;8.88;;;;;;;;;;5026333;28;20025;-79
2022/12/10 07:28:06;;;;;;;20.35;9.05;;;;;;;;;;5023896;28;20120;-78
2022/12/10 07:30:33;;;;;;;15.93;8.23;;;;;;;;;;5020577;28;20522;-79
2022/12/10 07:32:59;;;;;;;16.55;9.55;;;;;;;;;;5021853;28;20029;-79
2022/12/10 07:35:25;;;;;;;13.82;7.68;;;;;;;;;;5022795;28;20112;-77
2022/12/10 07:37:51;;;;;;;11.77;7.20;;;;;;;;;;5041824;28;20039;-77
2022/12/10 07:40:17;;;;;;;13.02;7.47;;;;;;;;;;5025354;28;20038;-78
2022/12/10 07:42:43;;;;;;;12.02;7.93;;;;;;;;;;5023604;28;20060;-78
2022/12/10 07:45:10;;;;;;;14.35;7.75;;;;;;;;;;5039230;28;20029;-78
2022/12/10 07:47:36;;;;;;;14.60;7.35;;;;;;;;;;5019329;28;20480;-78
2022/12/10 07:50:02;;;;;;;12.23;7.43;;;;;;;;;;5023862;28;20079;-78
2022/12/10 07:52:29;;;;;;;13.05;7.18;;;;;;;;;;5028671;28;20087;-79
2022/12/10 07:54:55;;;;;;;16.40;7.93;;;;;;;;;;5021563;28;20034;-78
2022/12/10 07:57:21;;;;;;;14.68;7.82;;;;;;;;;;5024434;28;20369;-78
2022/12/10 07:59:47;;;;;;;10.27;7.10;;;;;;;;;;5028238;28;20040;-78
2022/12/10 08:02:13;;;;;;;14.93;7.30;;;;;;;;;;5027228;28;20047;-78
2022/12/10 08:04:39;;;;;;;11.20;6.78;;;;;;;;;;5027943;28;20064;-78
2022/12/10 08:07:07;;;;;;;9.98;6.72;;;;;;;;;;5026781;28;20037;-77
2022/12/10 08:09:33;;;;;;;10.75;7.57;;;;;;;;;;5021112;28;20041;-78
2022/12/10 08:11:59;;;;;;;12.88;7.10;;;;;;;;;;5027227;28;20046;-79
2022/12/10 08:14:25;;;;;;;13.07;7.57;;;;;;;;;;5025316;28;20501;-81
2022/12/10 08:16:51;;;;;;;10.40;7.07;;;;;;;;;;5024716;28;20083;-78
2022/12/10 08:19:17;;;;;;;14.25;7.60;;;;;;;;;;5036345;28;20036;-78
2022/12/10 08:21:43;;;;;;;11.20;6.38;;;;;;;;;;5042113;28;20602;-78
2022/12/10 08:24:09;;;;;;;12.63;7.07;;;;;;;;;;5027781;28;20062;-78
2022/12/10 08:26:35;;;;;;;14.73;6.70;;;;;;;;;;5027957;28;20033;-78
2022/12/10 08:29:02;;;;;;;13.00;7.47;;;;;;;;;;5027685;28;20173;-80
2022/12/10 08:31:28;;;;;;;11.82;6.90;;;;;;;;;;5028371;28;20434;-78
2022/12/10 08:33:55;;;;;;;10.10;7.38;;;;;;;;;;5023664;28;20391;-79
2022/12/10 08:36:21;;;;;;;10.88;6.57;;;;;;;;;;5043270;28;20030;-78
2022/12/10 08:38:47;;;;;;;13.65;7.47;;;;;;;;;;5046227;28;20029;-79
2022/12/10 08:41:15;;;;;;;12.30;7.32;;;;;;;;;;5022576;28;20395;-78
2022/12/10 08:43:41;;;;;;;13.70;7.47;;;;;;;;;;5030350;28;20052;-79
2022/12/10 08:46:08;;;;;;;11.93;7.43;;;;;;;;;;5031270;28;20049;-78
2022/12/10 08:48:35;;;;;;;15.60;8.52;;;;;;;;;;5030405;28;20113;-78
2022/12/10 08:51:01;;;;;;;14.30;8.38;;;;;;;;;;5028528;28;20035;-77
2022/12/10 08:53:27;;;;;;;12.35;7.85;;;;;;;;;;5029396;28;20486;-78
2022/12/10 08:55:54;;;;;;;14.18;7.50;;;;;;;;;;5031562;28;20026;-78
2022/12/10 08:58:20;;;;;;;13.88;7.53;;;;;;;;;;5045644;28;20496;-78
2022/12/10 09:00:47;;;;;;;9.52;6.88;;;;;;;;;;5032302;28;20087;-79
2022/12/10 09:03:13;;;;;;;11.25;6.43;;;;;;;;;;5037467;28;20034;-78
2022/12/10 09:05:40;;;;;;;13.20;7.53;;;;;;;;;;5037736;28;20124;-79
2022/12/10 09:08:06;;;;;;;12.52;7.35;;;;;;;;;;5034677;28;20113;-79
2022/12/10 09:10:32;;;;;;;12.00;7.60;;;;;;;;;;5040305;28;20022;-78
2022/12/10 09:12:58;;;;;;;12.20;8.13;;;;;;;;;;5042983;28;20025;-78
2022/12/10 09:15:24;;;;;;;9.95;7.22;;;;;;;;;;5039416;28;20033;-78
2022/12/10 09:17:50;;;;;;;15.85;8.98;;;;;;;;;;5036101;28;20029;-78
2022/12/10 09:20:16;;;;;;;14.10;9.35;;;;;;;;;;5027678;28;20032;-78
2022/12/10 09:22:42;;;;;;;17.38;9.23;;;;;;;;;;5026184;28;20049;-78
2022/12/10 09:25:14;;;;;;;17.80;11.77;;;;;;;;;;5035253;28;20021;-78
2022/12/10 09:27:41;;;;;;;16.90;11.35;;;;;;;;;;5029397;28;20120;-79
2022/12/10 09:30:07;;;;;;;16.60;9.80;;;;;;;;;;5020806;28;20060;-77
2022/12/10 09:32:34;;;;;;;14.45;9.07;;;;;;;;;;5032138;28;20026;-78
2022/12/10 09:35:00;;;;;;;10.10;7.30;;;;;;;;;;5030451;28;20013;-78
2022/12/10 09:37:26;;;;;;;10.70;7.95;;;;;;;;;;5026379;28;20040;-79
2022/12/10 09:39:52;;;;;;;11.77;8.57;;;;;;;;;;5044367;28;20077;-77
2022/12/10 09:42:30;;;;;;;11.77;7.85;;;;;;;;;;5019890;28;20033;-78
2022/12/10 09:45:19;;;;;;;11.45;8.05;;;;;;;;;;5033523;28;20073;-79
2022/12/10 09:47:52;;;;;;;14.32;8.93;;;;;;;;;;5029258;28;20124;-78
2022/12/10 09:50:26;;;;;;;12.90;7.30;;;;;;;;;;5031777;28;20037;-78
2022/12/10 09:52:54;;;;;;;12.48;8.15;;;;;;;;;;5028777;28;20021;-78
2022/12/10 09:55:29;;;;;;;10.45;7.88;;;;;;;;;;5028096;28;20029;-76
2022/12/10 09:57:55;;;;;;;9.98;7.15;;;;;;;;;;5029643;28;20041;-77
2022/12/10 10:00:27;;;;;;;14.13;7.18;;;;;;;;;;5032725;28;20032;-78
2022/12/10 10:02:56;;;;;;;11.68;7.13;;;;;;;;;;5034759;28;20207;-80
2022/12/10 10:05:26;;;;;;;9.57;6.65;;;;;;;;;;5033571;28;20092;-78
2022/12/10 10:07:54;;;;;;;13.48;7.53;;;;;;;;;;5035471;28;20546;-78
2022/12/10 10:10:25;;;;;;;9.82;7.28;;;;;;;;;;5031666;28;20433;-78
2022/12/10 10:13:14;;;;;;;10.10;7.63;;;;;;;;;;5031093;28;20025;-79
2022/12/10 10:15:42;;;;;;;15.18;8.25;;;;;;;;;;4994733;28;20376;-79
2022/12/10 10:18:28;;;;;;;13.63;8.55;;;;;;;;;;5034328;28;20021;-79
2022/12/10 10:20:54;;;;;;;17.02;9.15;;;;;;;;;;5029360;28;20060;-77
2022/12/10 10:23:20;;;;;;;11.73;7.72;;;;;;;;;;5026161;28;20399;-78
2022/12/10 10:25:46;;;;;;;17.08;8.88;;;;;;;;;;5024621;28;20033;-77
2022/12/10 10:28:13;;;;;;;11.48;8.13;;;;;;;;;;5026908;28;20125;-78
2022/12/10 10:30:42;;;;;;;13.88;9.00;;;;;;;;;;5035052;28;20097;-78
2022/12/10 10:33:09;;;;;;;18.33;8.48;;;;;;;;;;5057599;28;20028;-79
2022/12/10 10:35:43;;;;;;;16.05;7.50;;;;;;;;;;5044322;28;20029;-78
2022/12/10 10:38:16;;;;;;;12.35;8.15;;;;;;;;;;5057663;28;20022;-78
2022/12/10 10:40:46;;;;;;;12.82;7.82;;;;;;;;;;5035572;28;20044;-79
2022/12/10 10:43:19;;;;;;;11.60;7.80;;;;;;;;;;5051881;28;20021;-79
2022/12/10 10:45:50;;;;;;;13.32;7.90;;;;;;;;;;5033219;28;20026;-78
2022/12/10 10:48:17;;;;;;;12.57;7.60;;;;;;;;;;5038925;28;20100;-78
2022/12/10 10:50:45;;;;;;;12.18;7.47;;;;;;;;;;5049110;28;20037;-80
2022/12/10 10:53:29;;;;;;;14.75;9.23;;;;;;;;;;5048833;28;20026;-78
2022/12/10 10:55:57;;;;;;;12.23;8.25;;;;;;;;;;5045020;28;20291;-78
2022/12/10 10:58:25;;;;;;;12.43;8.20;;;;;;;;;;5046703;28;20152;-80
2022/12/10 11:00:55;;;;;;;13.63;8.73;;;;;;;;;;5037742;28;20029;-79
2022/12/10 11:03:21;;;;;;;15.18;10.43;;;;;;;;;;5043350;28;20029;-78
2022/12/10 11:05:48;;;;;;;29.45;17.88;;;;;;;;;;5052736;28;20166;-79
2022/12/10 11:08:17;;;;;;;15.10;9.50;;;;;;;;;;5053301;28;20454;-79
2022/12/10 11:10:48;;;;;;;19.48;13.80;;;;;;;;;;5056251;28;20034;-80
2022/12/10 11:13:23;;;;;;;18.48;12.57;;;;;;;;;;5059853;28;20013;-79
2022/12/10 11:16:11;;;;;;;13.93;8.63;;;;;;;;;;5048221;28;20021;-79
2022/12/10 11:18:39;;;;;;;12.80;8.15;;;;;;;;;;5076844;28;20060;-80
2022/12/10 11:21:16;;;;;;;13.40;9.23;;;;;;;;;;5064029;28;20025;-78
2022/12/10 11:23:46;;;;;;;15.40;9.57;;;;;;;;;;5039717;28;20461;-80
2022/12/10 11:26:29;;;;;;;15.25;10.18;;;;;;;;;;5059062;28;20009;-78
2022/12/10 11:29:09;;;;;;;14.68;9.40;;;;;;;;;;5041307;28;20145;-79
2022/12/10 11:31:54;;;;;;;12.73;8.85;;;;;;;;;;5050666;28;20125;-79
2022/12/10 11:34:27;;;;;;;13.07;9.82;;;;;;;;;;5039350;28;20373;-80
2022/12/10 11:37:12;;;;;;;15.13;8.48;;;;;;;;;;5048582;28;20029;-79
2022/12/10 11:39:41;;;;;;;14.25;9.00;;;;;;;;;;5050255;28;20492;-79
2022/12/10 11:42:25;;;;;;;15.00;9.35;;;;;;;;;;5041415;28;20129;-79
2022/12/10 11:44:54;;;;;;;14.05;9.65;;;;;;;;;;5037943;28;20391;-79
2022/12/10 11:47:23;;;;;;;15.00;8.98;;;;;;;;;;5037713;28;20029;-79
2022/12/10 11:49:58;;;;;;;16.08;10.35;;;;;;;;;;5051730;28;20030;-79
2022/12/10 11:52:40;;;;;;;16.77;9.98;;;;;;;;;;5059217;28;20033;-79
2022/12/10 11:55:15;;;;;;;13.98;10.13;;;;;;;;;;5052804;28;20029;-80
2022/12/10 11:57:41;;;;;;;13.95;9.35;;;;;;;;;;5046462;28;20026;-81
2022/12/10 12:00:19;;;;;;;20.42;11.90;;;;;;;;;;5043991;28;20029;-79
2022/12/10 12:02:54;;;;;;;17.08;10.10;;;;;;;;;;5045544;28;20021;-78
2022/12/10 12:05:20;;;;;;;16.70;11.02;;;;;;;;;;5052767;28;20013;-79
2022/12/10 12:07:50;;;;;;;19.50;11.88;;;;;;;;;;5045933;28;20039;-79
2022/12/10 12:10:19;;;;;;;19.50;11.15;;;;;;;;;;5057538;28;20018;-78
2022/12/10 12:13:04;;;;;;;17.25;9.80;;;;;;;;;;5057004;28;20026;-79
2022/12/10 12:15:47;;;;;;;13.95;9.82;;;;;;;;;;5040232;28;20072;-80
2022/12/10 12:18:21;;;;;;;14.07;10.25;;;;;;;;;;5035006;28;20025;-77
2022/12/10 12:20:57;;;;;;;14.90;10.13;;;;;;;;;;5039881;28;20021;-79
2022/12/10 12:23:27;;;;;;;13.07;8.77;;;;;;;;;;5042752;28;20104;-80
2022/12/10 12:25:56;;;;;;;16.40;11.65;;;;;;;;;;5038430;28;20087;-79
2022/12/10 12:28:29;;;;;;;14.50;8.48;;;;;;;;;;5041234;28;20021;-79
2022/12/10 12:31:01;;;;;;;14.38;10.90;;;;;;;;;;5052674;28;20065;-78
2022/12/10 12:33:29;;;;;;;16.40;11.45;;;;;;;;;;5055152;28;20099;-79
2022/12/10 12:36:00;;;;;;;26.92;15.93;;;;;;;;;;5040021;28;20045;-79
2022/12/10 12:38:26;;;;;;;29.42;15.98;;;;;;;;;;5031702;28;20040;-79
2022/12/10 12:40:52;;;;;;;38.50;22.50;;;;;;;;;;5050282;28;20045;-81
2022/12/10 12:43:22;;;;;;;26.83;18.67;;;;;;;;;;5047264;28;20635;-79
2022/12/10 12:45:54;;;;;;;22.02;14.63;;;;;;;;;;5040783;28;20489;-80
2022/12/10 12:48:27;;;;;;;29.33;18.23;;;;;;;;;;5028486;28;20029;-78
2022/12/10 12:50:56;;;;;;;19.50;13.55;;;;;;;;;;5042328;28;20025;-79
2022/12/10 12:53:24;;;;;;;20.65;12.27;;;;;;;;;;5038012;28;20033;-79
2022/12/10 12:56:03;;;;;;;20.67;12.52;;;;;;;;;;5050743;28;20375;-79
2022/12/10 12:58:35;;;;;;;27.15;16.80;;;;;;;;;;5042867;28;20021;-80
2022/12/10 13:01:07;;;;;;;23.45;14.65;;;;;;;;;;5058955;28;20025;-78
2022/12/10 13:03:43;;;;;;;28.35;12.93;;;;;;;;;;5053635;28;20040;-82
2022/12/10 13:06:14;;;;;;;25.40;15.48;;;;;;;;;;5025267;28;20021;-78
2022/12/10 13:08:43;;;;;;;29.60;20.95;;;;;;;;;;5038108;28;20029;-79
2022/12/10 13:11:13;;;;;;;73.03;45.25;;;;;;;;;;5024173;28;20029;-78
2022/12/10 13:13:40;;;;;;;21.67;15.07;;;;;;;;;;5033616;28;20017;-79
2022/12/10 13:16:24;;;;;;;21.20;13.95;;;;;;;;;;5024193;28;20101;-78
2022/12/10 13:19:10;;;;;;;21.35;13.25;;;;;;;;;;5030073;28;20451;-79
2022/12/10 13:21:56;;;;;;;21.20;13.32;;;;;;;;;;5032000;28;20029;-80
2022/12/10 13:24:45;;;;;;;18.48;12.88;;;;;;;;;;5027902;28;20056;-79
2022/12/10 13:27:14;;;;;;;21.60;13.75;;;;;;;;;;5039832;28;20511;-79
2022/12/10 13:29:52;;;;;;;21.40;13.98;;;;;;;;;;5036432;28;20542;-79
2022/12/10 13:32:18;;;;;;;20.10;16.25;;;;;;;;;;5029495;28;20036;-80
2022/12/10 13:34:44;;;;;;;16.27;12.52;;;;;;;;;;5039810;28;20056;-80
2022/12/10 13:37:14;;;;;;;19.58;13.18;;;;;;;;;;5057443;28;20029;-79
2022/12/10 13:39:48;;;;;;;19.13;11.57;;;;;;;;;;5039827;28;20040;-78
2022/12/10 13:45:23;;;;;;;39.75;17.65;;;;;;;;;;5046901;28;20044;-78
2022/12/10 13:47:54;;;;;;;113.32;36.53;;;;;;;;;;5033053;28;20059;-81
2022/12/10 13:50:39;;;;;;;30.13;16.75;;;;;;;;;;5054280;28;20036;-80
2022/12/10 13:53:08;;;;;;;17.95;11.15;;;;;;;;;;5037149;28;20021;-82
2022/12/10 13:55:40;;;;;;;22.63;12.10;;;;;;;;;;5040593;28;20136;-80
2022/12/10 13:58:09;;;;;;;29.00;14.82;;;;;;;;;;5041875;28;20017;-80
2022/12/10 14:00:41;;;;;;;22.30;12.32;;;;;;;;;;5060194;28;20025;-79
2022/12/10 14:03:15;;;;;;;25.48;15.25;;;;;;;;;;5057489;28;20029;-81
2022/12/10 14:05:53;;;;;;;81.80;39.25;;;;;;;;;;5040921;28;20029;-81
2022/12/10 14:08:31;;;;;;;37.88;24.60;;;;;;;;;;5048807;28;20034;-81
2022/12/10 14:10:58;;;;;;;21.67;14.18;;;;;;;;;;5034574;28;20029;-80
2022/12/10 14:13:27;;;;;;;23.40;13.50;;;;;;;;;;5061068;28;20021;-80
2022/12/10 14:15:59;;;;;;;22.42;13.35;;;;;;;;;;5031506;28;20097;-79
2022/12/10 14:18:27;;;;;;;24.60;15.15;;;;;;;;;;5036345;28;20025;-79
2022/12/10 14:20:54;;;;;;;30.30;16.77;;;;;;;;;;5041498;28;20089;-80
2022/12/10 14:23:33;;;;;;;48.58;30.27;;;;;;;;;;5038794;28;20112;-80
2022/12/10 14:26:04;;;;;;;36.30;24.38;;;;;;;;;;5055924;28;20017;-79
2022/12/10 14:28:33;;;;;;;31.25;20.40;;;;;;;;;;5061306;28;20036;-79
2022/12/10 14:30:59;;;;;;;25.00;16.52;;;;;;;;;;5048848;28;20045;-79
2022/12/10 14:33:25;;;;;;;21.60;14.60;;;;;;;;;;5032262;28;20060;-79
2022/12/10 14:35:52;;;;;;;27.98;15.55;;;;;;;;;;5036456;28;20031;-79
2022/12/10 14:38:21;;;;;;;21.05;14.05;;;;;;;;;;5035954;28;20230;-80
2022/12/10 14:40:47;;;;;;;23.65;14.02;;;;;;;;;;5058242;28;20051;-78
2022/12/10 14:43:25;;;;;;;24.38;16.40;;;;;;;;;;5038473;28;20030;-78
2022/12/10 14:45:57;;;;;;;24.58;16.27;;;;;;;;;;5028699;28;20038;-78
2022/12/10 14:48:23;;;;;;;27.92;17.27;;;;;;;;;;5035841;28;20081;-79
2022/12/10 14:50:49;;;;;;;31.33;17.00;;;;;;;;;;5036709;28;20025;-78
2022/12/10 14:53:17;;;;;;;29.20;13.70;;;;;;;;;;5037139;28;20064;-77
2022/12/10 14:55:44;;;;;;;25.23;14.32;;;;;;;;;;5034297;28;20021;-78
2022/12/10 14:58:15;;;;;;;29.52;17.40;;;;;;;;;;5031093;28;20021;-78
2022/12/10 15:00:41;;;;;;;28.85;17.13;;;;;;;;;;5044334;28;20040;-78
2022/12/10 15:03:09;;;;;;;60.97;28.92;;;;;;;;;;5022661;28;20026;-78
2022/12/10 15:05:36;;;;;;;44.17;19.77;;;;;;;;;;5034155;28;20080;-79
2022/12/10 15:08:03;;;;;;;48.38;25.98;;;;;;;;;;5031431;28;20033;-79
2022/12/10 15:10:51;;;;;;;49.83;22.67;;;;;;;;;;5023482;28;20057;-78
2022/12/10 15:13:22;;;;;;;32.47;14.32;;;;;;;;;;5033279;28;20042;-79
2022/12/10 15:15:50;;;;;;;31.73;15.50;;;;;;;;;;5051408;28;20087;-79
2022/12/10 15:18:17;;;;;;;47.53;23.77;;;;;;;;;;5030367;28;20021;-78
2022/12/10 15:20:51;;;;;;;43.30;24.50;;;;;;;;;;5035497;28;20022;-79
2022/12/10 15:23:25;;;;;;;53.90;21.23;;;;;;;;;;5050052;28;20029;-80
2022/12/10 15:25:58;;;;;;;75.75;35.13;;;;;;;;;;5046701;28;20083;-78
2022/12/10 15:28:26;;;;;;;54.20;29.35;;;;;;;;;;5037179;28;20040;-79